Terminal Aerodrome Forecast
Issued by NWS Upton, NY

Home | Current Version | Previous Version | Text Only | Print | Product List | Glossary On
Versions: 1 2 3 4 5 6 7 8 9 10 11 12 13 14 15 16 17 18 19 20 21 22 23 24 25 26 27 28 29 30 31 32 33 34 35
000
FTUS41 KOKX 232322 CCA
TAFBDR
TAF COR
KBDR 232322Z 2400/2424 19010KT P6SM SCT025 SCT035 BKN060
      TEMPO 2401/2403 5SM TSRA BKN030CB
     FM240300 19008KT P6SM VCSH BKN035 BKN060
     FM240800 21008KT 3SM -SHRA BR SCT015 BKN040
      TEMPO 2412/2416 2SM +SHRA BR BKN012 OVC020
     FM241600 28010G19KT P6SM SCT050
     FM241800 30014G20KT P6SM FEW050=

USA.gov is the U.S. government's official web portal to all federal, state and local government web resources and services.